Terminal Aerodrome Forecast
Issued by NWS

Home | Current Version | Previous Version | Text Only | Print | Product List | Glossary On
Versions: 1 2 3 4 5 6 7 8 9 10 11 12 13 14
000
FTUS44 KJAN 021501 AAA
TAFGTR
TAF AMD
KGTR 021501Z 0215/0312 22007KT P6SM FEW020 SCT150 BKN200
     FM021700 25015G22KT P6SM VCSH SCT050 BKN150 BKN250
     FM022000 25015G21KT P6SM VCTS SCT040CB BKN100=

USA.gov is the U.S. government's official web portal to all federal, state and local government web resources and services.